createdAt,value
2019-02-26T00:01:48.583Z,73.10
2019-02-26T00:04:11.659Z,73.30
2019-02-26T00:06:38.595Z,74.00
2019-02-26T00:09:07.729Z,76.20
2019-02-26T00:11:36.167Z,74.90
2019-02-26T00:14:01.642Z,74.00
2019-02-26T00:16:28.996Z,74.70
2019-02-26T00:18:56.229Z,74.20
2019-02-26T00:21:24.421Z,75.00
2019-02-26T00:23:51.325Z,74.40
2019-02-26T00:26:18.323Z,75.30
2019-02-26T00:28:45.744Z,76.70
2019-02-26T00:31:11.325Z,77.30
2019-02-26T00:33:38.272Z,77.10
2019-02-26T00:36:07.163Z,77.20
2019-02-26T00:38:33.065Z,77.10
2019-02-26T00:41:01.553Z,76.80
2019-02-26T00:43:28.019Z,76.80
2019-02-26T00:45:53.335Z,76.80
2019-02-26T00:48:19.972Z,76.90
2019-02-26T00:50:47.019Z,77.50
2019-02-26T00:53:17.152Z,77.30
2019-02-26T00:55:40.927Z,77.40
2019-02-26T00:58:08.430Z,77.40
2019-02-26T01:00:35.467Z,77.50
2019-02-26T01:03:03.549Z,77.40
2019-02-26T01:05:28.699Z,77.50
2019-02-26T01:07:55.646Z,77.60
2019-02-26T01:10:23.641Z,77.80
2019-02-26T01:12:49.633Z,78.10
2019-02-26T01:15:16.664Z,78.50
2019-02-26T01:17:43.636Z,78.30
2019-02-26T01:20:12.872Z,78.30
2019-02-26T01:22:40.241Z,78.30
2019-02-26T01:25:07.292Z,78.20
2019-02-26T01:27:34.220Z,78.10
2019-02-26T01:30:03.268Z,77.90
2019-02-26T01:32:28.105Z,77.40
2019-02-26T01:34:55.043Z,78.00
2019-02-26T01:37:22.024Z,78.50
2019-02-26T01:39:50.046Z,79.20
2019-02-26T01:42:17.999Z,78.10
2019-02-26T01:44:44.445Z,78.50
2019-02-26T01:47:09.792Z,77.40
2019-02-26T01:49:36.741Z,78.00
2019-02-26T01:52:03.675Z,78.40
2019-02-26T01:54:32.955Z,78.60
2019-02-26T01:56:57.540Z,78.40
2019-02-26T01:59:24.499Z,78.60
2019-02-26T02:01:53.272Z,79.10
2019-02-26T02:04:19.602Z,79.80
2019-02-26T02:06:45.347Z,79.40
2019-02-26T02:09:14.115Z,79.90
2019-02-26T02:11:40.726Z,80.20
2019-02-26T02:14:08.210Z,79.80
2019-02-26T02:16:34.055Z,79.20
2019-02-26T02:19:01.012Z,80.20
2019-02-26T02:21:30.450Z,79.50
2019-02-26T02:23:56.103Z,80.10
2019-02-26T02:26:23.041Z,80.00
2019-02-26T02:28:50.017Z,79.80
2019-02-26T02:31:16.937Z,79.60
2019-02-26T02:33:43.879Z,79.40
2019-02-26T02:36:11.798Z,78.70
2019-02-26T02:38:37.802Z,78.80
2019-02-26T02:41:04.736Z,79.20
2019-02-26T02:43:31.705Z,79.20
2019-02-26T02:46:01.220Z,80.20
2019-02-26T02:48:25.586Z,80.90
2019-02-26T02:50:52.536Z,81.00
2019-02-26T02:53:21.090Z,81.20
2019-02-26T02:55:48.875Z,81.50
2019-02-26T02:58:15.907Z,81.20
2019-02-26T03:00:40.330Z,80.20
2019-02-26T03:03:07.270Z,79.40
2019-02-26T03:05:37.218Z,80.40
2019-02-26T03:08:01.141Z,81.70
2019-02-26T03:10:30.818Z,81.50
2019-02-26T03:12:57.807Z,80.90
2019-02-26T03:15:24.625Z,80.80
2019-02-26T03:17:48.939Z,81.30
2019-02-26T03:20:15.973Z,80.90
2019-02-26T03:22:46.068Z,80.40
2019-02-26T03:25:11.686Z,81.10
2019-02-26T03:27:40.620Z,82.00
2019-02-26T03:30:07.130Z,81.60
2019-02-26T03:32:36.603Z,82.40
2019-02-26T03:35:04.403Z,81.90
2019-02-26T03:37:28.819Z,81.80
2019-02-26T03:39:57.322Z,82.40
2019-02-26T03:42:21.852Z,83.30
2019-02-26T03:44:48.780Z,83.70
2019-02-26T03:47:16.247Z,85.00
2019-02-26T03:49:42.676Z,85.70
2019-02-26T03:52:09.612Z,86.40
2019-02-26T03:54:39.848Z,86.00
2019-02-26T03:57:03.526Z,85.00
2019-02-26T03:59:30.474Z,83.00
2019-02-26T04:01:57.402Z,83.00
2019-02-26T04:04:26.132Z,83.60
2019-02-26T04:06:51.303Z,82.00
2019-02-26T04:09:19.595Z,83.40
2019-02-26T04:11:47.749Z,83.50
2019-02-26T04:14:12.595Z,84.10
2019-02-26T04:16:41.130Z,84.70
2019-02-26T04:19:08.912Z,84.10
2019-02-26T04:21:58.476Z,82.80
2019-02-26T04:24:26.013Z,82.60
2019-02-26T04:27:10.952Z,83.50
2019-02-26T04:29:55.284Z,83.20
2019-02-26T04:32:50.816Z,82.90
2019-02-26T04:35:27.108Z,84.50
2019-02-26T04:38:09.263Z,85.70
2019-02-26T04:40:57.671Z,86.20
2019-02-26T04:43:34.176Z,85.80
2019-02-26T04:46:15.212Z,85.90
2019-02-26T04:48:42.188Z,85.40
2019-02-26T04:51:09.108Z,85.40
2019-02-26T04:53:36.498Z,84.70
2019-02-26T04:56:05.807Z,83.80
2019-02-26T04:58:29.980Z,84.00
2019-02-26T05:00:56.949Z,85.80
2019-02-26T05:03:23.887Z,84.60
2019-02-26T05:05:53.709Z,85.10
2019-02-26T05:08:17.880Z,86.70
2019-02-26T05:10:46.371Z,87.10
2019-02-26T05:13:11.627Z,85.40
2019-02-26T05:15:38.568Z,86.30
2019-02-26T05:18:05.504Z,86.60
2019-02-26T05:20:34.067Z,86.60
2019-02-26T05:23:00.996Z,86.60
2019-02-26T05:25:27.160Z,86.40
2019-02-26T05:27:56.467Z,86.10
2019-02-26T05:30:23.408Z,84.90
2019-02-26T05:32:51.938Z,85.20
2019-02-26T05:35:19.670Z,86.10
2019-02-26T05:37:44.257Z,85.70
2019-02-26T05:40:13.387Z,86.20
2019-02-26T05:42:38.124Z,86.60
2019-02-26T05:45:08.430Z,87.70
2019-02-26T05:47:32.157Z,87.90
2019-02-26T05:49:59.530Z,87.30
2019-02-26T05:52:27.265Z,87.60
2019-02-26T05:54:52.973Z,86.00
2019-02-26T05:57:30.870Z,85.30
2019-02-26T05:59:46.865Z,84.90
2019-02-26T06:02:16.221Z,85.40
2019-02-26T06:04:41.863Z,85.30
2019-02-26T06:07:08.170Z,85.90
2019-02-26T06:09:35.090Z,86.00
2019-02-26T06:12:02.028Z,85.50
2019-02-26T06:14:31.278Z,84.90
2019-02-26T06:16:55.979Z,84.60
2019-02-26T06:19:39.598Z,85.80
2019-02-26T06:22:04.712Z,85.70
2019-02-26T06:24:33.211Z,86.00
2019-02-26T06:26:58.668Z,86.40
2019-02-26T06:29:27.416Z,86.70
2019-02-26T06:31:53.169Z,86.50
2019-02-26T06:34:21.417Z,85.60
2019-02-26T06:36:48.785Z,86.00
2019-02-26T06:39:14.004Z,87.80
2019-02-26T06:41:41.917Z,88.10
2019-02-26T06:44:07.904Z,88.30
2019-02-26T06:46:35.967Z,87.30
2019-02-26T06:49:01.829Z,86.20
2019-02-26T06:51:30.621Z,85.50
2019-02-26T06:54:19.646Z,85.80
2019-02-26T06:56:44.320Z,86.00
2019-02-26T06:59:12.122Z,86.00
2019-02-26T07:01:37.958Z,86.40
2019-02-26T07:04:04.191Z,86.70
2019-02-26T07:06:33.120Z,87.50
2019-02-26T07:08:58.084Z,89.40
2019-02-26T07:11:26.192Z,88.30
2019-02-26T07:13:53.733Z,87.80
2019-02-26T07:16:20.622Z,87.60
2019-02-26T07:18:45.983Z,86.90
2019-02-26T07:21:12.912Z,87.20
2019-02-26T07:23:40.067Z,86.60
2019-02-26T07:26:06.815Z,85.40
2019-02-26T07:28:33.776Z,84.20
2019-02-26T07:31:02.807Z,83.60
2019-02-26T07:33:29.863Z,83.40
2019-02-26T07:35:57.330Z,83.00
2019-02-26T07:38:23.103Z,82.50
2019-02-26T07:40:49.452Z,82.20
2019-02-26T07:43:17.912Z,81.60
2019-02-26T07:45:43.396Z,81.20
2019-02-26T07:48:10.345Z,80.60
2019-02-26T07:50:40.015Z,80.40
2019-02-26T07:53:04.236Z,80.20
2019-02-26T07:55:32.708Z,79.90
2019-02-26T07:57:58.118Z,79.60
2019-02-26T08:00:25.079Z,79.00
2019-02-26T08:02:54.009Z,78.20
2019-02-26T08:05:21.066Z,76.90
2019-02-26T08:07:46.709Z,76.50
2019-02-26T08:10:16.378Z,75.50
2019-02-26T08:12:42.709Z,76.00
2019-02-26T08:15:12.621Z,76.90
2019-02-26T08:17:37.663Z,76.80
2019-02-26T08:20:07.448Z,76.30
2019-02-26T08:22:33.901Z,76.30
2019-02-26T08:24:58.539Z,76.40
2019-02-26T08:27:26.363Z,75.20
2019-02-26T08:29:54.143Z,75.30
2019-02-26T08:32:21.024Z,73.90
2019-02-26T08:34:46.623Z,73.20
2019-02-26T08:37:13.591Z,72.60
2019-02-26T08:39:40.516Z,72.60
2019-02-26T08:42:09.078Z,72.30
2019-02-26T08:44:36.037Z,72.40
2019-02-26T08:47:06.201Z,71.10
2019-02-26T08:49:29.989Z,70.40
2019-02-26T08:51:56.937Z,69.10
2019-02-26T08:54:26.025Z,68.10
2019-02-26T08:56:50.792Z,66.50
2019-02-26T08:59:18.359Z,66.30
2019-02-26T09:01:44.718Z,65.00
2019-02-26T09:04:14.421Z,63.70
2019-02-26T09:06:39.346Z,62.00
2019-02-26T09:09:06.908Z,59.80
2019-02-26T09:11:35.925Z,58.50
2019-02-26T09:14:02.214Z,56.80
2019-02-26T09:16:29.981Z,53.80
2019-02-26T09:18:54.708Z,50.70
2019-02-26T09:21:22.865Z,48.60
2019-02-26T09:23:51.945Z,46.40
2019-02-26T09:26:15.560Z,44.80
2019-02-26T09:28:44.606Z,43.60
2019-02-26T09:31:11.675Z,41.70
2019-02-26T09:33:38.718Z,38.60
2019-02-26T09:38:41.875Z,36.50
2019-02-26T09:41:09.464Z,36.60
2019-02-26T09:43:36.280Z,35.90
2019-02-26T09:46:01.391Z,34.00
2019-02-26T09:48:28.343Z,33.00
2019-02-26T09:50:55.304Z,33.00
2019-02-26T09:53:22.283Z,33.00
2019-02-26T09:55:49.267Z,32.90
2019-02-26T09:58:18.085Z,32.20
2019-02-26T10:00:46.078Z,31.20
2019-02-26T10:03:13.223Z,30.30
2019-02-26T10:05:38.773Z,31.30
2019-02-26T10:08:05.826Z,30.80
2019-02-26T10:10:34.614Z,31.00
2019-02-26T10:13:02.894Z,29.80
2019-02-26T10:15:27.392Z,29.20
2019-02-26T10:17:56.223Z,28.70
2019-02-26T10:20:24.791Z,28.40
2019-02-26T10:22:48.293Z,28.40
2019-02-26T10:25:17.929Z,28.50
2019-02-26T10:27:45.545Z,28.10
2019-02-26T10:30:17.426Z,27.40
2019-02-26T10:32:46.834Z,27.60
2019-02-26T10:35:18.045Z,27.20
2019-02-26T10:37:44.924Z,27.50
2019-02-26T10:40:12.555Z,27.40
2019-02-26T10:42:39.894Z,26.30
2019-02-26T10:45:06.369Z,26.00
2019-02-26T10:47:34.653Z,26.50
2019-02-26T10:49:59.982Z,26.00
2019-02-26T10:52:28.660Z,25.70
2019-02-26T10:54:53.911Z,25.60
2019-02-26T10:57:20.837Z,25.60
2019-02-26T10:59:49.131Z,26.00
2019-02-26T11:02:17.821Z,26.10
2019-02-26T11:04:44.003Z,25.10
2019-02-26T11:07:11.481Z,25.10
2019-02-26T11:09:36.977Z,24.70
2019-02-26T11:12:07.904Z,24.40
2019-02-26T11:14:33.549Z,23.50
2019-02-26T11:16:58.504Z,23.80
2019-02-26T11:19:27.356Z,24.30
2019-02-26T11:21:58.674Z,23.70
2019-02-26T11:24:28.194Z,23.30
2019-02-26T11:26:56.752Z,23.00
2019-02-26T11:29:26.124Z,23.30
2019-02-26T11:31:53.198Z,22.30
2019-02-26T11:34:20.380Z,22.90
2019-02-26T11:36:48.821Z,22.40
2019-02-26T11:39:16.911Z,22.30
2019-02-26T11:41:43.933Z,22.90
2019-02-26T11:44:12.732Z,22.10
2019-02-26T11:46:37.829Z,22.30
2019-02-26T11:49:04.793Z,22.60
2019-02-26T11:51:37.134Z,23.00
2019-02-26T11:54:00.130Z,23.50
2019-02-26T11:56:25.952Z,23.50
2019-02-26T11:58:52.696Z,23.90
2019-02-26T12:01:19.631Z,23.70
2019-02-26T12:03:46.580Z,23.60
2019-02-26T12:06:13.621Z,24.20
2019-02-26T12:08:42.431Z,24.80
2019-02-26T12:11:12.374Z,25.30
2019-02-26T12:13:34.629Z,25.90
2019-02-26T12:16:01.604Z,26.50
2019-02-26T12:18:28.532Z,25.30
2019-02-26T12:20:55.498Z,26.60
2019-02-26T12:23:22.822Z,26.70
2019-02-26T12:25:49.885Z,26.80
2019-02-26T12:28:16.448Z,27.30
2019-02-26T12:30:46.123Z,27.40
2019-02-26T12:33:12.382Z,27.50
2019-02-26T12:35:38.680Z,27.50
2019-02-26T12:38:17.261Z,28.30
2019-02-26T12:40:31.733Z,28.30
2019-02-26T12:42:58.708Z,28.30
2019-02-26T12:45:27.965Z,28.90
2019-02-26T12:47:55.103Z,28.70
2019-02-26T12:50:19.543Z,28.60
2019-02-26T12:52:47.481Z,29.40
2019-02-26T12:55:13.436Z,29.30
2019-02-26T12:57:40.443Z,29.80
2019-02-26T13:00:13.166Z,29.60
2019-02-26T13:02:39.762Z,29.90
2019-02-26T13:05:06.671Z,29.90
2019-02-26T13:07:32.148Z,29.70
2019-02-26T13:10:02.781Z,30.00
2019-02-26T13:12:29.688Z,30.00
2019-02-26T13:14:54.603Z,30.20
2019-02-26T13:17:21.101Z,30.30
2019-02-26T13:19:49.168Z,30.60
2019-02-26T13:22:17.986Z,30.90
2019-02-26T13:24:40.853Z,30.90
2019-02-26T13:27:07.808Z,30.80
2019-02-26T13:29:34.730Z,31.10
2019-02-26T13:32:01.667Z,31.30
2019-02-26T13:34:28.636Z,31.70
2019-02-26T13:36:56.788Z,32.00
2019-02-26T13:39:29.947Z,32.00
2019-02-26T13:41:54.194Z,32.30
2019-02-26T13:44:17.943Z,32.30
2019-02-26T13:46:44.889Z,32.40
2019-02-26T13:49:11.852Z,32.40
2019-02-26T13:51:38.792Z,32.30
2019-02-26T13:54:05.959Z,32.50
2019-02-26T13:56:32.904Z,32.90
2019-02-26T13:58:59.844Z,32.70
2019-02-26T14:01:26.788Z,33.20
2019-02-26T14:03:53.771Z,33.00
2019-02-26T14:06:20.705Z,33.60
2019-02-26T14:08:48.649Z,33.90
2019-02-26T14:11:15.604Z,33.60
2019-02-26T14:13:42.554Z,33.60
2019-02-26T14:16:09.685Z,33.80
2019-02-26T14:18:36.485Z,33.80
2019-02-26T14:21:03.424Z,33.70
2019-02-26T14:23:34.882Z,34.10
2019-02-26T14:25:57.333Z,34.50
2019-02-26T14:28:24.249Z,34.30
2019-02-26T14:30:51.189Z,34.20
2019-02-26T14:33:18.167Z,33.60
2019-02-26T14:35:45.136Z,34.20
2019-02-26T14:38:12.048Z,34.50
2019-02-26T14:40:39.664Z,35.00
2019-02-26T14:43:06.740Z,35.40
2019-02-26T14:45:33.680Z,35.50
2019-02-26T14:48:00.736Z,34.40
2019-02-26T14:50:27.684Z,36.10
2019-02-26T14:52:54.641Z,36.20
2019-02-26T14:55:21.582Z,36.40
2019-02-26T14:57:48.500Z,36.70
2019-02-26T15:00:18.175Z,37.30
2019-02-26T15:02:45.151Z,37.80
2019-02-26T15:05:12.079Z,37.60
2019-02-26T15:07:39.109Z,37.80
2019-02-26T15:10:06.224Z,37.80
2019-02-26T15:12:33.167Z,38.10
2019-02-26T15:15:00.431Z,38.50
2019-02-26T15:17:27.126Z,38.50
2019-02-26T15:19:54.118Z,38.30
2019-02-26T15:22:21.046Z,38.60
2019-02-26T15:24:48.008Z,39.30
2019-02-26T15:27:14.980Z,39.80
2019-02-26T15:29:41.922Z,39.80
2019-02-26T15:32:08.868Z,39.90
2019-02-26T15:34:35.812Z,40.00
2019-02-26T15:37:02.832Z,40.50
2019-02-26T15:39:29.765Z,40.80
2019-02-26T15:41:58.039Z,40.70
2019-02-26T15:44:26.159Z,40.60
2019-02-26T15:46:51.967Z,40.90
2019-02-26T15:49:18.943Z,40.90
2019-02-26T15:51:45.877Z,40.70
2019-02-26T15:54:12.831Z,40.60
2019-02-26T15:56:39.791Z,40.50
2019-02-26T15:59:06.730Z,40.80
2019-02-26T16:01:33.681Z,40.80
2019-02-26T16:04:00.611Z,40.70
2019-02-26T16:06:27.574Z,40.90
2019-02-26T16:08:54.981Z,41.40
2019-02-26T16:11:21.941Z,41.30
2019-02-26T16:13:48.904Z,42.30
2019-02-26T16:16:15.840Z,42.20
2019-02-26T16:18:42.776Z,42.40
2019-02-26T16:21:09.764Z,42.90
2019-02-26T16:23:36.716Z,43.20
2019-02-26T16:26:05.620Z,43.10
2019-02-26T16:28:30.596Z,43.30
2019-02-26T16:30:57.552Z,43.20
2019-02-26T16:33:24.488Z,43.50
2019-02-26T16:35:52.310Z,43.40
2019-02-26T16:38:18.383Z,43.60
2019-02-26T16:40:45.311Z,43.60
2019-02-26T16:43:14.862Z,43.50
2019-02-26T16:45:39.393Z,43.80
2019-02-26T16:48:06.329Z,43.70
2019-02-26T16:50:33.288Z,43.50
2019-02-26T16:53:01.163Z,43.80
2019-02-26T16:55:27.183Z,43.90
2019-02-26T16:57:54.131Z,44.30
2019-02-26T17:00:21.115Z,44.50
2019-02-26T17:02:48.050Z,44.70
2019-02-26T17:05:15.209Z,44.80
2019-02-26T17:07:41.929Z,45.50
2019-02-26T17:10:10.360Z,45.50
2019-02-26T17:12:37.291Z,45.40
2019-02-26T17:15:05.414Z,46.20
2019-02-26T17:17:34.386Z,46.50
2019-02-26T17:19:59.331Z,46.40
2019-02-26T17:22:26.303Z,46.00
2019-02-26T17:24:53.641Z,46.20
2019-02-26T17:27:20.151Z,46.10
2019-02-26T17:29:49.351Z,46.90
2019-02-26T17:32:14.045Z,47.00
2019-02-26T17:34:40.969Z,47.40
2019-02-26T17:37:08.497Z,47.50
2019-02-26T17:39:34.869Z,47.40
2019-02-26T17:42:01.811Z,47.60
2019-02-26T17:44:29.111Z,48.30
2019-02-26T17:46:56.031Z,48.30
2019-02-26T17:49:22.959Z,48.50
2019-02-26T17:51:49.955Z,49.30
2019-02-26T17:54:16.888Z,49.80
2019-02-26T17:56:43.813Z,50.30
2019-02-26T17:59:10.762Z,50.50
2019-02-26T18:01:37.690Z,50.60
2019-02-26T18:04:04.627Z,51.00
2019-02-26T18:06:31.778Z,51.60
2019-02-26T18:08:58.734Z,51.60
2019-02-26T18:11:25.677Z,51.80
2019-02-26T18:13:52.657Z,52.30
2019-02-26T18:16:19.615Z,52.90
2019-02-26T18:18:46.591Z,53.40
2019-02-26T18:21:13.543Z,53.80
2019-02-26T18:23:40.464Z,54.10
2019-02-26T18:26:07.427Z,54.00
2019-02-26T18:28:34.377Z,54.40
2019-02-26T18:31:01.364Z,55.10
2019-02-26T18:33:28.330Z,55.20
2019-02-26T18:35:55.269Z,55.00
2019-02-26T18:38:22.207Z,55.80
2019-02-26T18:40:49.143Z,56.60
2019-02-26T18:43:16.114Z,56.40
2019-02-26T18:45:44.891Z,56.80
2019-02-26T18:48:12.626Z,57.20
2019-02-26T18:50:39.169Z,57.00
2019-02-26T18:53:05.796Z,56.90
2019-02-26T18:55:32.777Z,57.30
2019-02-26T18:57:59.715Z,57.40
2019-02-26T19:00:26.703Z,58.20
2019-02-26T19:02:53.639Z,58.50
2019-02-26T19:05:21.040Z,58.40
2019-02-26T19:07:47.555Z,58.30
2019-02-26T19:10:17.508Z,58.30
2019-02-26T19:12:41.606Z,58.60
2019-02-26T19:15:12.612Z,58.90
2019-02-26T19:17:37.429Z,59.30
2019-02-26T19:20:06.122Z,60.00
2019-02-26T19:22:33.072Z,60.60
2019-02-26T19:25:00.013Z,61.50
2019-02-26T19:27:26.981Z,62.20
2019-02-26T19:29:53.923Z,63.00
2019-02-26T19:32:20.897Z,63.00
2019-02-26T19:34:47.894Z,62.80
2019-02-26T19:37:16.726Z,63.10
2019-02-26T19:39:41.800Z,64.10
2019-02-26T19:42:08.769Z,62.60
2019-02-26T19:44:36.429Z,63.40
2019-02-26T19:47:04.299Z,63.90
2019-02-26T19:49:31.270Z,63.80
2019-02-26T19:51:58.216Z,63.90
2019-02-26T19:54:25.201Z,64.30
2019-02-26T19:56:56.696Z,64.10
2019-02-26T19:59:19.460Z,65.30
2019-02-26T20:01:46.448Z,65.30
2019-02-26T20:04:13.473Z,65.20
2019-02-26T20:06:40.441Z,64.70
2019-02-26T20:09:07.401Z,65.50
2019-02-26T20:11:34.405Z,65.60
2019-02-26T20:14:04.717Z,65.50
2019-02-26T20:16:28.439Z,66.20
2019-02-26T20:18:58.767Z,67.20
2019-02-26T20:21:22.288Z,67.90
2019-02-26T20:23:49.244Z,67.40
2019-02-26T20:26:16.472Z,67.50
2019-02-26T20:28:43.125Z,67.00
2019-02-26T20:31:10.076Z,67.40
2019-02-26T20:33:37.025Z,67.40
2019-02-26T20:36:03.975Z,68.30
2019-02-26T20:38:35.041Z,68.40
2019-02-26T20:40:57.942Z,68.20
2019-02-26T20:43:24.913Z,68.30
2019-02-26T20:45:51.864Z,68.30
2019-02-26T20:48:20.718Z,68.40
2019-02-26T20:50:47.645Z,68.20
2019-02-26T20:53:14.575Z,68.30
2019-02-26T20:55:41.532Z,68.50
2019-02-26T20:58:09.678Z,68.00
2019-02-26T21:00:35.498Z,68.60
2019-02-26T21:03:02.464Z,69.30
2019-02-26T21:05:29.401Z,68.80
2019-02-26T21:07:58.758Z,69.10
2019-02-26T21:10:23.373Z,69.10
2019-02-26T21:12:50.305Z,69.40
2019-02-26T21:15:17.352Z,69.70
2019-02-26T21:17:44.321Z,70.20
2019-02-26T21:20:11.489Z,70.90
2019-02-26T21:22:38.411Z,71.00
2019-02-26T21:25:05.577Z,71.50
2019-02-26T21:27:32.503Z,71.50
2019-02-26T21:29:59.561Z,72.00
2019-02-26T21:32:26.523Z,72.20
2019-02-26T21:34:53.488Z,72.90
2019-02-26T21:37:20.416Z,73.40
2019-02-26T21:39:47.422Z,73.20
2019-02-26T21:42:14.360Z,73.20
2019-02-26T21:44:41.855Z,73.30
2019-02-26T21:47:08.390Z,73.50
2019-02-26T21:49:35.584Z,73.20
2019-02-26T21:52:04.141Z,73.20
2019-02-26T21:54:29.546Z,73.60
2019-02-26T21:56:56.488Z,74.00
2019-02-26T21:59:23.437Z,74.60
2019-02-26T22:01:50.404Z,74.40
2019-02-26T22:04:17.418Z,75.10
2019-02-26T22:06:45.940Z,74.30
2019-02-26T22:09:11.324Z,73.20
2019-02-26T22:11:38.275Z,74.80
2019-02-26T22:14:05.201Z,74.60
2019-02-26T22:16:32.191Z,74.50
2019-02-26T22:18:59.164Z,74.10
2019-02-26T22:21:26.144Z,74.00
2019-02-26T22:23:53.142Z,74.10
2019-02-26T22:26:20.133Z,74.90
2019-02-26T22:28:47.110Z,75.20
2019-02-26T22:31:14.055Z,75.60
2019-02-26T22:33:43.182Z,76.30
2019-02-26T22:36:08.093Z,76.80
2019-02-26T22:38:35.202Z,76.60
2019-02-26T22:41:02.892Z,76.20
2019-02-26T22:52:10.481Z,76.80
2019-02-26T22:54:37.438Z,75.60
2019-02-26T22:57:04.491Z,75.30
2019-02-26T22:59:31.490Z,74.90
2019-02-26T23:01:58.461Z,74.30
2019-02-26T23:04:25.409Z,76.50
2019-02-26T23:06:52.392Z,76.90
2019-02-26T23:09:21.303Z,77.80
2019-02-26T23:11:48.697Z,77.90
2019-02-26T23:14:15.664Z,77.60
2019-02-26T23:16:42.619Z,77.40
2019-02-26T23:19:09.552Z,76.90
2019-02-26T23:21:36.518Z,76.20
2019-02-26T23:24:03.481Z,76.10
2019-02-26T23:26:30.460Z,76.70
2019-02-26T23:28:57.457Z,76.20
2019-02-26T23:31:24.410Z,77.60
2019-02-26T23:33:51.382Z,77.50
2019-02-26T23:36:18.386Z,76.60
2019-02-26T23:38:45.353Z,76.70
2019-02-26T23:41:12.317Z,77.00
2019-02-26T23:43:39.291Z,77.70
2019-02-26T23:46:06.219Z,77.70
2019-02-26T23:48:33.181Z,77.60
2019-02-26T23:51:00.193Z,78.30
2019-02-26T23:53:28.164Z,78.60
2019-02-26T23:55:55.092Z,78.70
2019-02-26T23:58:22.056Z,78.70
